Time;durP1;ratioP1;P1;durP2;ratioP2;P2;SDS_P1;SDS_P2;PMS_P1;PMS_P2;Temp;Humidity;BMP_temperature;BMP_pressure;BME280_temperature;BME280_humidity;BME280_pressure;Samples;Min_cycle;Max_cycle;Signal;HPM_P1;HPM_P2
2021/06/06 00:00:20;;;;;;;11.57;6.68;;;17.40;99.90;;;;;;173215;28;1431;-75
2021/06/06 00:00:43;;;;;;;8.76;6.49;;;17.40;99.90;;;;;;173260;28;1226;-75
2021/06/06 00:00:54;;;;;;;7.65;6.45;;;17.40;99.90;;;;;;172513;28;1668;-75
2021/06/06 00:01:12;;;;;;;8.57;6.57;;;17.40;99.90;;;;;;172549;28;1449;-75
2021/06/06 00:01:23;;;;;;;7.96;6.30;;;17.40;99.90;;;;;;173326;28;1196;-75
2021/06/06 00:01:37;;;;;;;7.84;6.08;;;17.40;99.90;;;;;;172489;28;1423;-74
2021/06/06 00:01:44;;;;;;;8.63;6.31;;;17.40;99.90;;;;;;171834;28;2862;-75
2021/06/06 00:01:50;;;;;;;9.50;6.42;;;17.40;99.90;;;;;;171857;28;1437;-75
2021/06/06 00:01:56;;;;;;;9.55;6.40;;;17.40;99.90;;;;;;173166;28;1135;-75
2021/06/06 00:02:06;;;;;;;9.45;6.30;;;17.40;99.90;;;;;;172359;28;1369;-76
2021/06/06 00:02:12;;;;;;;9.00;6.19;;;17.30;99.90;;;;;;173016;28;1535;-75
2021/06/06 00:02:18;;;;;;;8.18;6.25;;;17.40;99.90;;;;;;172620;28;891;-75
2021/06/06 00:02:24;;;;;;;7.65;6.15;;;17.40;99.90;;;;;;172640;28;927;-75
2021/06/06 00:02:30;;;;;;;8.45;6.38;;;17.40;99.90;;;;;;171233;28;1016;-76
2021/06/06 00:02:35;;;;;;;8.47;6.50;;;17.40;99.90;;;;;;172591;28;1314;-75
2021/06/06 00:02:42;;;;;;;7.85;6.40;;;17.40;99.90;;;;;;172557;28;1453;-74
2021/06/06 00:02:49;;;;;;;7.83;6.13;;;17.40;99.90;;;;;;172675;28;1104;-74
2021/06/06 00:02:55;;;;;;;8.30;6.10;;;17.40;99.90;;;;;;173327;28;989;-75
2021/06/06 00:03:03;;;;;;;7.60;6.03;;;17.40;99.90;;;;;;171880;28;1411;-75
2021/06/06 00:03:30;;;;;;;8.33;6.12;;;17.30;99.90;;;;;;171294;28;1021;-75
2021/06/06 00:03:42;;;;;;;8.56;6.45;;;17.40;99.90;;;;;;171886;28;1351;-75
2021/06/06 00:03:52;;;;;;;8.46;6.43;;;17.40;99.90;;;;;;172524;28;2737;-75
2021/06/06 00:03:59;;;;;;;10.43;6.37;;;17.40;99.90;;;;;;172581;28;1271;-74
2021/06/06 00:04:18;;;;;;;10.53;6.47;;;17.40;99.90;;;;;;172510;28;1392;-75
2021/06/06 00:04:24;;;;;;;10.82;6.31;;;17.30;99.90;;;;;;171875;28;1241;-75
2021/06/06 00:04:30;;;;;;;10.50;6.40;;;17.30;99.90;;;;;;172622;28;997;-74
2021/06/06 00:04:43;;;;;;;10.30;6.40;;;17.30;99.90;;;;;;173240;28;1235;-75
2021/06/06 00:04:49;;;;;;;9.95;6.63;;;17.30;99.90;;;;;;173195;28;1445;-75
2021/06/06 00:04:55;;;;;;;9.63;6.43;;;17.30;99.90;;;;;;171865;28;1410;-75
2021/06/06 00:05:01;;;;;;;9.85;6.40;;;17.30;99.90;;;;;;172552;28;1240;-75
2021/06/06 00:05:07;;;;;;;10.60;6.47;;;17.30;99.90;;;;;;173004;28;1199;-75
2021/06/06 00:05:16;;;;;;;10.00;6.26;;;17.30;99.90;;;;;;173229;28;1349;-75
2021/06/06 00:05:32;;;;;;;9.80;6.43;;;17.30;99.90;;;;;;173203;28;1211;-74
2021/06/06 00:05:55;;;;;;;9.01;6.65;;;17.30;99.90;;;;;;173272;28;1224;-75
2021/06/06 00:06:06;;;;;;;9.96;6.78;;;17.30;99.90;;;;;;171857;28;1521;-75
2021/06/06 00:06:22;;;;;;;8.68;6.57;;;17.30;99.90;;;;;;172529;28;1471;-74
2021/06/06 00:06:32;;;;;;;8.51;6.54;;;17.30;99.90;;;;;;172605;28;1221;-75
2021/06/06 00:06:39;;;;;;;8.63;6.43;;;17.30;99.90;;;;;;171228;28;1280;-74
2021/06/06 00:06:45;;;;;;;8.88;6.40;;;17.30;99.90;;;;;;171286;28;1050;-75
2021/06/06 00:06:51;;;;;;;8.75;6.22;;;17.30;99.90;;;;;;172584;28;1394;-75
2021/06/06 00:06:57;;;;;;;9.30;6.22;;;17.30;99.90;;;;;;172627;28;768;-75
2021/06/06 00:07:03;;;;;;;9.25;6.40;;;17.30;99.90;;;;;;172587;28;1053;-75
2021/06/06 00:07:09;;;;;;;9.15;6.25;;;17.30;99.90;;;;;;171902;28;2161;-75
2021/06/06 00:07:15;;;;;;;9.75;6.28;;;17.30;99.90;;;;;;171155;28;1396;-74
2021/06/06 00:07:21;;;;;;;8.98;6.30;;;17.30;99.90;;;;;;172710;28;1363;-74
2021/06/06 00:07:27;;;;;;;8.80;6.30;;;17.30;99.90;;;;;;172701;28;1324;-74
2021/06/06 00:07:32;;;;;;;9.20;6.22;;;17.30;99.90;;;;;;173303;28;1340;-74
2021/06/06 00:07:38;;;;;;;9.97;6.20;;;17.30;99.90;;;;;;173993;28;1453;-75
2021/06/06 00:07:44;;;;;;;9.73;6.27;;;17.30;99.90;;;;;;172888;28;1596;-75
2021/06/06 00:07:50;;;;;;;10.00;6.38;;;17.30;99.90;;;;;;172710;28;1200;-74
2021/06/06 00:07:56;;;;;;;12.45;6.65;;;17.30;99.90;;;;;;172462;28;1285;-75
2021/06/06 00:08:02;;;;;;;12.40;6.93;;;17.30;99.90;;;;;;171963;28;1215;-75
2021/06/06 00:08:08;;;;;;;11.50;7.03;;;17.30;99.90;;;;;;172386;28;1359;-76
2021/06/06 00:08:14;;;;;;;10.87;7.03;;;17.30;99.90;;;;;;171993;28;1346;-75
2021/06/06 00:08:20;;;;;;;11.32;6.90;;;17.30;99.90;;;;;;172107;28;1148;-75
2021/06/06 00:08:28;;;;;;;9.53;6.97;;;17.30;99.90;;;;;;172705;28;1243;-74
2021/06/06 00:08:38;;;;;;;9.23;6.87;;;17.30;99.90;;;;;;172759;28;967;-75
2021/06/06 00:08:45;;;;;;;10.09;6.93;;;17.30;99.90;;;;;;171930;28;1318;-74
2021/06/06 00:08:53;;;;;;;11.10;6.97;;;17.30;99.90;;;;;;171999;28;1453;-75
2021/06/06 00:09:01;;;;;;;10.90;6.75;;;17.30;99.90;;;;;;173397;28;946;-75
2021/06/06 00:09:14;;;;;;;10.30;6.73;;;17.30;99.90;;;;;;173438;28;870;-75
2021/06/06 00:09:21;;;;;;;8.84;6.66;;;17.30;99.90;;;;;;171988;28;1460;-74
2021/06/06 00:09:27;;;;;;;7.66;6.78;;;17.30;99.90;;;;;;172353;28;1460;-75
2021/06/06 00:09:32;;;;;;;7.72;6.75;;;17.30;99.90;;;;;;172021;28;1288;-75
2021/06/06 00:09:39;;;;;;;7.67;6.87;;;17.30;99.90;;;;;;173361;28;1171;-75
2021/06/06 00:09:45;;;;;;;7.80;6.97;;;17.30;99.90;;;;;;172664;28;1273;-75
2021/06/06 00:09:50;;;;;;;8.00;6.80;;;17.30;99.90;;;;;;172776;28;1063;-75
2021/06/06 00:09:56;;;;;;;7.95;6.70;;;17.30;99.90;;;;;;173335;28;1210;-75
2021/06/06 00:10:05;;;;;;;8.95;6.70;;;17.30;99.90;;;;;;173384;28;1227;-74
2021/06/06 00:10:12;;;;;;;9.20;6.73;;;17.30;99.90;;;;;;173465;28;1256;-75
2021/06/06 00:10:17;;;;;;;9.20;6.80;;;17.30;99.90;;;;;;172761;28;1288;-74
2021/06/06 00:10:23;;;;;;;8.98;6.68;;;17.30;99.90;;;;;;172657;28;1271;-75
2021/06/06 00:10:29;;;;;;;8.45;6.63;;;17.30;99.90;;;;;;171989;28;1488;-75
2021/06/06 00:10:35;;;;;;;8.15;6.45;;;17.30;99.90;;;;;;172657;28;1408;-75
2021/06/06 00:10:42;;;;;;;8.90;6.45;;;17.30;99.90;;;;;;173377;28;1302;-75
2021/06/06 00:10:49;;;;;;;8.66;6.58;;;17.30;99.90;;;;;;172632;28;1345;-75
2021/06/06 00:11:03;;;;;;;10.00;6.83;;;17.30;99.90;;;;;;171641;28;1364;-75
2021/06/06 00:11:29;;;;;;;9.59;7.00;;;17.30;99.90;;;;;;172631;28;1414;-75
2021/06/06 00:11:41;;;;;;;9.88;7.26;;;17.30;99.90;;;;;;172753;28;1225;-75
2021/06/06 00:11:54;;;;;;;9.62;7.23;;;17.30;99.90;;;;;;172673;28;1433;-74
2021/06/06 00:12:00;;;;;;;9.29;7.10;;;17.30;99.90;;;;;;171257;28;1326;-74
2021/06/06 00:12:08;;;;;;;8.73;6.78;;;17.30;99.90;;;;;;172773;28;907;-75
2021/06/06 00:12:13;;;;;;;8.36;6.64;;;17.30;99.90;;;;;;172640;28;1449;-74
2021/06/06 00:12:20;;;;;;;8.63;6.35;;;17.30;99.90;;;;;;173339;28;1229;-75
2021/06/06 00:12:26;;;;;;;8.40;6.30;;;17.30;99.90;;;;;;173316;28;1515;-75
2021/06/06 00:12:33;;;;;;;9.07;6.23;;;17.30;99.90;;;;;;174084;28;1465;-74
2021/06/06 00:12:39;;;;;;;9.36;6.20;;;17.30;99.90;;;;;;173348;28;1321;-74
2021/06/06 00:12:45;;;;;;;9.46;6.64;;;17.30;99.90;;;;;;173464;28;866;-75
2021/06/06 00:12:51;;;;;;;10.37;6.90;;;17.30;99.90;;;;;;172661;28;1311;-75
2021/06/06 00:12:56;;;;;;;10.50;7.00;;;17.30;99.90;;;;;;172698;28;1223;-74
2021/06/06 00:13:03;;;;;;;11.00;7.03;;;17.30;99.90;;;;;;171962;28;1213;-75
2021/06/06 00:13:09;;;;;;;10.88;7.20;;;17.30;99.90;;;;;;172659;28;1449;-74
2021/06/06 00:13:18;;;;;;;10.43;7.00;;;17.30;99.90;;;;;;173281;28;1322;-75
2021/06/06 00:13:25;;;;;;;10.03;7.14;;;17.30;99.90;;;;;;173303;28;1366;-74
2021/06/06 00:13:32;;;;;;;8.67;7.20;;;17.30;99.90;;;;;;172020;28;1521;-74
2021/06/06 00:13:39;;;;;;;9.37;7.07;;;17.30;99.90;;;;;;172708;28;950;-75
2021/06/06 00:13:47;;;;;;;10.60;7.13;;;17.30;99.90;;;;;;173348;28;1094;-75
2021/06/06 00:13:57;;;;;;;10.42;7.00;;;17.30;99.90;;;;;;172653;28;1529;-74
2021/06/06 00:14:08;;;;;;;10.32;7.03;;;17.30;99.90;;;;;;171973;28;1285;-74
2021/06/06 00:14:23;;;;;;;10.06;7.04;;;17.30;99.90;;;;;;172611;28;1441;-75
2021/06/06 00:14:36;;;;;;;11.20;6.91;;;17.30;99.90;;;;;;171989;28;2758;-75
2021/06/06 00:14:42;;;;;;;12.18;7.01;;;17.30;99.90;;;;;;171423;28;1226;-74
2021/06/06 00:14:48;;;;;;;10.70;7.00;;;17.30;99.90;;;;;;170614;28;1299;-75
2021/06/06 00:14:55;;;;;;;10.55;7.05;;;17.30;99.90;;;;;;172000;28;1176;-74
2021/06/06 00:15:08;;;;;;;8.87;7.03;;;17.30;99.90;;;;;;172105;28;878;-75
2021/06/06 00:15:16;;;;;;;8.84;7.04;;;17.30;99.90;;;;;;171321;28;1236;-75
2021/06/06 00:15:22;;;;;;;8.10;6.90;;;17.30;99.90;;;;;;172503;28;1357;-74
2021/06/06 00:15:28;;;;;;;8.18;6.95;;;17.30;99.90;;;;;;171320;28;1360;-75
2021/06/06 00:15:34;;;;;;;8.85;7.07;;;17.30;99.90;;;;;;172032;28;1307;-74
2021/06/06 00:15:43;;;;;;;8.50;7.00;;;17.30;99.90;;;;;;171947;28;1619;-75
2021/06/06 00:15:48;;;;;;;9.07;7.10;;;17.30;99.90;;;;;;172488;28;1380;-74
2021/06/06 00:15:55;;;;;;;10.03;7.30;;;17.30;99.90;;;;;;172055;28;1165;-75
2021/06/06 00:16:01;;;;;;;9.67;7.17;;;17.30;99.90;;;;;;172113;28;831;-75
2021/06/06 00:16:16;;;;;;;10.00;7.28;;;17.30;99.90;;;;;;171966;28;1188;-75
2021/06/06 00:16:30;;;;;;;11.52;7.82;;;17.30;99.90;;;;;;172703;28;1558;-74
2021/06/06 00:16:43;;;;;;;11.88;7.76;;;17.30;99.90;;;;;;172057;28;1233;-74
2021/06/06 00:16:53;;;;;;;12.43;7.40;;;17.20;99.90;;;;;;172065;28;1253;-75
2021/06/06 00:17:04;;;;;;;12.96;7.08;;;17.20;99.90;;;;;;171400;28;1787;-75
2021/06/06 00:17:11;;;;;;;12.14;7.01;;;17.30;99.90;;;;;;171336;28;1449;-75
2021/06/06 00:17:17;;;;;;;9.13;7.07;;;17.20;99.90;;;;;;172038;28;1303;-75
2021/06/06 00:17:23;;;;;;;9.40;7.35;;;17.20;99.90;;;;;;171571;28;1216;-75
2021/06/06 00:17:29;;;;;;;10.18;7.65;;;17.20;99.90;;;;;;171412;28;817;-75
2021/06/06 00:17:35;;;;;;;10.13;7.60;;;17.20;99.90;;;;;;171988;28;1181;-75
2021/06/06 00:17:40;;;;;;;10.35;7.68;;;17.20;99.90;;;;;;172623;28;1478;-76
2021/06/06 00:17:46;;;;;;;9.73;7.55;;;17.20;99.90;;;;;;172675;28;1352;-75
2021/06/06 00:17:52;;;;;;;10.38;7.32;;;17.20;99.90;;;;;;171315;28;1272;-75
2021/06/06 00:17:58;;;;;;;11.38;7.18;;;17.20;99.90;;;;;;172059;28;982;-75
2021/06/06 00:18:04;;;;;;;11.53;7.33;;;17.20;99.90;;;;;;172665;28;1331;-74
2021/06/06 00:18:11;;;;;;;11.18;7.36;;;17.20;99.90;;;;;;172509;28;2156;-75
2021/06/06 00:18:17;;;;;;;11.80;7.50;;;17.20;99.90;;;;;;171987;28;1444;-75
2021/06/06 00:18:23;;;;;;;10.88;7.60;;;17.20;99.90;;;;;;171829;28;1359;-75
2021/06/06 00:18:29;;;;;;;9.37;7.50;;;17.20;99.90;;;;;;171475;28;833;-75
2021/06/06 00:18:35;;;;;;;9.40;7.57;;;17.20;99.90;;;;;;172041;28;1275;-75
2021/06/06 00:18:41;;;;;;;9.48;7.50;;;17.20;99.90;;;;;;172070;28;950;-74
2021/06/06 00:18:48;;;;;;;8.64;7.32;;;17.20;99.90;;;;;;173348;28;1549;-75
2021/06/06 00:18:55;;;;;;;8.92;7.30;;;17.20;99.90;;;;;;172583;28;1325;-75
2021/06/06 00:19:01;;;;;;;8.77;7.40;;;17.20;99.90;;;;;;171419;28;1026;-74
2021/06/06 00:19:08;;;;;;;8.82;7.40;;;17.20;99.90;;;;;;171999;28;1347;-75
2021/06/06 00:19:16;;;;;;;9.23;7.48;;;17.20;99.90;;;;;;172579;28;1544;-75
2021/06/06 00:19:24;;;;;;;9.43;7.48;;;17.20;99.90;;;;;;171926;28;1471;-74
2021/06/06 00:19:30;;;;;;;9.42;7.33;;;17.20;99.90;;;;;;170653;28;1563;-75
2021/06/06 00:19:37;;;;;;;8.57;6.88;;;17.20;99.90;;;;;;171325;28;1435;-75
2021/06/06 00:19:43;;;;;;;8.67;6.90;;;17.20;99.90;;;;;;171952;28;1402;-75
2021/06/06 00:19:49;;;;;;;8.40;6.77;;;17.20;99.90;;;;;;172690;28;942;-75
2021/06/06 00:19:54;;;;;;;8.15;7.03;;;17.20;99.90;;;;;;171990;28;1283;-75
2021/06/06 00:20:01;;;;;;;8.10;7.15;;;17.20;99.90;;;;;;172472;28;1303;-77
2021/06/06 00:20:10;;;;;;;8.87;7.43;;;17.20;99.90;;;;;;171377;28;1355;-75
2021/06/06 00:20:16;;;;;;;8.49;7.61;;;17.20;99.90;;;;;;171341;28;1233;-75
2021/06/06 00:20:26;;;;;;;8.80;7.72;;;17.20;99.90;;;;;;171391;28;1061;-74
2021/06/06 00:20:33;;;;;;;8.53;7.40;;;17.20;99.90;;;;;;170614;29;1415;-76
2021/06/06 00:20:39;;;;;;;8.33;7.40;;;17.10;99.90;;;;;;171237;28;1902;-74
2021/06/06 00:20:46;;;;;;;9.53;7.37;;;17.10;99.90;;;;;;171271;28;1361;-75
2021/06/06 00:20:52;;;;;;;9.13;7.30;;;17.10;99.90;;;;;;172006;28;1315;-75
2021/06/06 00:20:57;;;;;;;9.27;7.32;;;17.10;99.90;;;;;;171987;28;1354;-74
2021/06/06 00:21:05;;;;;;;9.43;7.40;;;17.10;99.90;;;;;;172777;28;970;-75
2021/06/06 00:21:13;;;;;;;9.67;7.47;;;17.10;99.90;;;;;;173322;28;1242;-75
2021/06/06 00:21:21;;;;;;;8.48;7.33;;;17.10;99.90;;;;;;173431;28;1044;-75
2021/06/06 00:21:30;;;;;;;9.10;7.75;;;17.10;99.90;;;;;;173433;28;1199;-75
2021/06/06 00:21:38;;;;;;;9.46;7.89;;;17.10;99.90;;;;;;172632;28;1301;-74
2021/06/06 00:21:45;;;;;;;9.50;7.95;;;17.10;99.90;;;;;;171394;28;969;-74
2021/06/06 00:21:53;;;;;;;9.37;8.00;;;17.10;99.90;;;;;;171462;28;951;-74
2021/06/06 00:22:00;;;;;;;11.17;8.18;;;17.10;99.90;;;;;;171434;28;2041;-75
2021/06/06 00:22:06;;;;;;;11.06;8.26;;;17.10;99.90;;;;;;170760;29;1058;-75
2021/06/06 00:22:13;;;;;;;11.17;8.40;;;17.10;99.90;;;;;;171470;28;863;-75
2021/06/06 00:22:18;;;;;;;11.17;8.33;;;17.10;99.90;;;;;;172619;28;1444;-75
2021/06/06 00:22:24;;;;;;;10.50;8.33;;;17.10;99.90;;;;;;172545;28;1453;-75
2021/06/06 00:22:30;;;;;;;9.15;8.23;;;17.10;99.90;;;;;;172602;28;1261;-75
2021/06/06 00:22:37;;;;;;;9.68;8.27;;;17.10;99.90;;;;;;172077;28;824;-75
2021/06/06 00:22:43;;;;;;;10.53;8.30;;;17.10;99.90;;;;;;171313;28;1375;-75
2021/06/06 00:22:48;;;;;;;11.30;8.27;;;17.00;99.90;;;;;;171356;28;1253;-75
2021/06/06 00:22:57;;;;;;;12.73;8.20;;;17.00;99.90;;;;;;172011;28;1361;-75
2021/06/06 00:23:05;;;;;;;13.23;8.20;;;17.00;99.90;;;;;;171322;28;1252;-75
2021/06/06 00:23:12;;;;;;;12.62;8.05;;;17.00;99.90;;;;;;171179;28;1394;-75
2021/06/06 00:23:17;;;;;;;11.37;7.90;;;17.00;99.90;;;;;;172634;28;1373;-75
2021/06/06 00:23:23;;;;;;;10.57;7.83;;;17.00;99.90;;;;;;173413;28;907;-75
2021/06/06 00:23:31;;;;;;;10.15;7.75;;;17.00;99.90;;;;;;173498;28;969;-74
2021/06/06 00:23:37;;;;;;;9.55;7.67;;;17.00;99.90;;;;;;172744;28;934;-75
2021/06/06 00:23:43;;;;;;;9.47;7.70;;;17.00;99.90;;;;;;171340;28;1418;-75
2021/06/06 00:23:49;;;;;;;10.55;7.85;;;17.00;99.90;;;;;;172064;28;997;-75
2021/06/06 00:23:56;;;;;;;11.02;8.00;;;17.00;99.90;;;;;;171970;28;1319;-74
2021/06/06 00:24:05;;;;;;;11.17;8.07;;;17.00;99.90;;;;;;172753;28;967;-74
2021/06/06 00:24:14;;;;;;;10.63;8.21;;;17.00;99.90;;;;;;171291;28;1425;-75
2021/06/06 00:24:25;;;;;;;10.25;8.43;;;17.00;99.90;;;;;;171963;28;1413;-75
2021/06/06 00:24:34;;;;;;;10.95;8.31;;;17.00;99.90;;;;;;171910;28;1519;-75
2021/06/06 00:24:40;;;;;;;11.53;8.20;;;17.00;99.90;;;;;;172679;28;1375;-74
2021/06/06 00:24:46;;;;;;;11.35;8.00;;;17.00;99.90;;;;;;172715;28;1204;-75
2021/06/06 00:24:52;;;;;;;9.65;7.55;;;17.00;99.90;;;;;;173430;28;912;-75
2021/06/06 00:24:57;;;;;;;9.70;7.73;;;17.00;99.90;;;;;;173337;28;1371;-75
2021/06/06 00:25:07;;;;;;;9.90;7.97;;;17.00;99.90;;;;;;173317;28;1235;-75
2021/06/06 00:25:14;;;;;;;10.05;7.93;;;17.00;99.90;;;;;;173310;28;1189;-75
2021/06/06 00:25:22;;;;;;;10.50;8.00;;;17.00;99.90;;;;;;173353;28;1401;-75
2021/06/06 00:25:28;;;;;;;10.70;8.07;;;17.00;99.90;;;;;;172008;28;1166;-75
2021/06/06 00:25:34;;;;;;;10.05;7.70;;;17.00;99.90;;;;;;172085;28;971;-74
2021/06/06 00:25:40;;;;;;;9.98;7.57;;;17.00;99.90;;;;;;173333;28;1420;-74
2021/06/06 00:25:46;;;;;;;9.93;7.43;;;17.00;99.90;;;;;;171970;28;1401;-74
2021/06/06 00:25:52;;;;;;;8.93;7.47;;;17.00;99.90;;;;;;171966;28;1224;-75
2021/06/06 00:26:04;;;;;;;9.07;7.55;;;17.00;99.90;;;;;;170654;28;1349;-75
2021/06/06 00:26:11;;;;;;;8.68;7.56;;;17.00;99.90;;;;;;171951;28;1354;-75
2021/06/06 00:26:17;;;;;;;9.34;7.52;;;17.00;99.90;;;;;;172654;28;1573;-74
2021/06/06 00:26:25;;;;;;;10.10;7.40;;;17.00;99.90;;;;;;174035;28;1405;-75
2021/06/06 00:26:31;;;;;;;10.80;7.23;;;17.00;99.90;;;;;;173505;28;856;-74
2021/06/06 00:26:38;;;;;;;12.13;7.20;;;17.00;99.90;;;;;;170581;28;1290;-76
2021/06/06 00:26:44;;;;;;;12.18;7.42;;;17.00;99.90;;;;;;172070;28;1018;-74
2021/06/06 00:26:51;;;;;;;11.63;7.35;;;17.00;99.90;;;;;;172080;28;923;-74
2021/06/06 00:26:58;;;;;;;11.18;7.40;;;17.00;99.90;;;;;;173188;28;1392;-75
2021/06/06 00:27:06;;;;;;;9.15;7.35;;;17.00;99.90;;;;;;174073;28;946;-75
2021/06/06 00:27:12;;;;;;;9.08;7.37;;;17.00;99.90;;;;;;173312;28;1326;-74
2021/06/06 00:27:18;;;;;;;8.75;7.32;;;17.00;99.90;;;;;;173330;28;1218;-75
2021/06/06 00:27:23;;;;;;;8.52;7.22;;;17.00;99.90;;;;;;174650;28;1433;-75
2021/06/06 00:27:29;;;;;;;8.43;7.28;;;17.00;99.90;;;;;;174829;28;807;-75
2021/06/06 00:27:35;;;;;;;9.70;7.38;;;17.00;99.90;;;;;;172704;28;1295;-74
2021/06/06 00:27:41;;;;;;;9.60;7.17;;;16.90;99.90;;;;;;171384;28;1204;-74
2021/06/06 00:27:47;;;;;;;10.13;7.17;;;16.90;99.90;;;;;;172678;28;1295;-75
2021/06/06 00:27:53;;;;;;;10.03;7.30;;;16.90;99.90;;;;;;173369;28;1401;-75
2021/06/06 00:27:59;;;;;;;10.27;7.20;;;16.90;99.90;;;;;;173414;28;970;-75
2021/06/06 00:28:06;;;;;;;10.23;7.25;;;16.90;99.90;;;;;;172653;28;1248;-74
2021/06/06 00:28:11;;;;;;;10.80;7.53;;;16.90;99.90;;;;;;173299;28;1145;-75
2021/06/06 00:28:18;;;;;;;11.00;7.60;;;16.90;99.90;;;;;;173352;28;1343;-75
2021/06/06 00:28:24;;;;;;;10.73;7.70;;;16.90;99.90;;;;;;172693;28;1262;-75
2021/06/06 00:28:32;;;;;;;12.05;7.80;;;16.90;99.90;;;;;;172261;28;1287;-74
2021/06/06 00:28:38;;;;;;;10.63;7.71;;;16.90;99.90;;;;;;173362;28;1523;-75
2021/06/06 00:28:44;;;;;;;9.90;7.40;;;16.90;99.90;;;;;;174146;28;894;-75
2021/06/06 00:28:51;;;;;;;10.07;7.33;;;16.90;99.90;;;;;;173320;28;1319;-75
2021/06/06 00:28:57;;;;;;;10.10;7.30;;;16.90;99.90;;;;;;171990;28;891;-74
2021/06/06 00:29:04;;;;;;;8.87;7.23;;;16.90;99.90;;;;;;172731;28;867;-75
2021/06/06 00:29:10;;;;;;;9.94;7.46;;;16.90;99.90;;;;;;171117;28;1436;-75
2021/06/06 00:29:16;;;;;;;10.05;7.75;;;16.90;99.90;;;;;;171934;28;1239;-75
2021/06/06 00:29:23;;;;;;;9.90;7.67;;;16.90;99.90;;;;;;172784;28;990;-75
2021/06/06 00:29:30;;;;;;;9.38;7.60;;;16.90;99.90;;;;;;172002;28;1438;-75
2021/06/06 00:29:36;;;;;;;10.37;7.60;;;16.90;99.90;;;;;;172765;28;914;-75
2021/06/06 00:29:42;;;;;;;9.15;7.40;;;16.90;99.90;;;;;;170922;28;1250;-75
2021/06/06 00:29:48;;;;;;;9.00;7.30;;;16.90;99.90;;;;;;172790;28;875;-75
2021/06/06 00:29:54;;;;;;;9.13;7.28;;;16.90;99.90;;;;;;173405;28;1241;-75
2021/06/06 00:30:00;;;;;;;9.15;7.22;;;16.90;99.90;;;;;;173428;28;922;-74
2021/06/06 00:30:09;;;;;;;9.07;7.28;;;16.90;99.90;;;;;;173256;28;1464;-75
2021/06/06 00:30:15;;;;;;;9.13;7.39;;;16.90;99.90;;;;;;171938;28;1313;-75
2021/06/06 00:30:22;;;;;;;8.60;7.33;;;16.90;99.90;;;;;;172133;28;914;-75
2021/06/06 00:30:28;;;;;;;8.67;7.30;;;16.90;99.90;;;;;;171940;28;1413;-75
2021/06/06 00:30:35;;;;;;;8.15;7.07;;;16.90;99.90;;;;;;172738;28;875;-74
2021/06/06 00:30:41;;;;;;;7.88;6.82;;;16.90;99.90;;;;;;173334;28;1381;-75
2021/06/06 00:30:47;;;;;;;8.20;6.53;;;16.90;99.90;;;;;;173379;28;1257;-75
2021/06/06 00:30:52;;;;;;;8.70;6.40;;;16.90;99.90;;;;;;172018;28;1268;-74
2021/06/06 00:31:05;;;;;;;8.55;6.35;;;16.90;99.90;;;;;;172652;28;1436;-76
2021/06/06 00:31:11;;;;;;;8.99;6.47;;;16.90;99.90;;;;;;172663;28;1449;-74
2021/06/06 00:31:18;;;;;;;8.77;6.82;;;16.90;99.90;;;;;;172632;28;1453;-74
2021/06/06 00:31:24;;;;;;;8.97;7.03;;;16.90;99.90;;;;;;171308;28;1423;-75
2021/06/06 00:31:30;;;;;;;9.55;7.28;;;16.90;99.90;;;;;;173325;28;1388;-75
2021/06/06 00:31:36;;;;;;;8.80;7.20;;;16.90;99.90;;;;;;173288;28;1226;-75
2021/06/06 00:31:42;;;;;;;8.88;7.25;;;16.90;99.90;;;;;;172651;28;1687;-75
2021/06/06 00:31:48;;;;;;;8.90;7.25;;;16.80;99.90;;;;;;174010;28;1227;-75
2021/06/06 00:31:55;;;;;;;8.32;7.20;;;16.90;99.90;;;;;;173463;28;933;-75
2021/06/06 00:32:01;;;;;;;8.20;7.13;;;16.80;99.90;;;;;;174193;28;933;-75
2021/06/06 00:32:07;;;;;;;9.27;7.20;;;16.80;99.90;;;;;;173319;28;1334;-75
2021/06/06 00:32:13;;;;;;;8.90;7.07;;;16.80;99.90;;;;;;172068;28;891;-75
2021/06/06 00:32:19;;;;;;;9.02;7.10;;;16.80;99.90;;;;;;173411;28;804;-75
2021/06/06 00:32:25;;;;;;;9.48;7.07;;;16.80;99.90;;;;;;171232;28;1477;-76
2021/06/06 00:32:31;;;;;;;9.10;7.00;;;16.80;99.90;;;;;;171990;28;1473;-75
2021/06/06 00:32:37;;;;;;;8.20;6.90;;;16.80;99.90;;;;;;172661;28;1376;-75
2021/06/06 00:32:44;;;;;;;8.56;7.02;;;16.80;99.90;;;;;;172675;28;1431;-74
2021/06/06 00:32:50;;;;;;;8.00;6.97;;;16.80;99.90;;;;;;171820;28;1429;-74
2021/06/06 00:32:56;;;;;;;7.95;7.00;;;16.90;99.90;;;;;;172725;28;895;-75
2021/06/06 00:33:04;;;;;;;8.27;7.05;;;16.80;99.90;;;;;;172006;28;1294;-74
2021/06/06 00:33:10;;;;;;;8.40;7.13;;;16.80;99.90;;;;;;173328;28;1322;-74
2021/06/06 00:33:16;;;;;;;8.87;7.00;;;16.80;99.90;;;;;;173420;28;920;-75
2021/06/06 00:33:22;;;;;;;9.40;7.10;;;16.80;99.90;;;;;;173436;28;871;-75
2021/06/06 00:33:28;;;;;;;9.57;7.10;;;16.80;99.90;;;;;;172640;28;1507;-75
2021/06/06 00:33:35;;;;;;;10.50;6.90;;;16.80;99.90;;;;;;172768;28;886;-75
2021/06/06 00:33:41;;;;;;;10.04;6.84;;;16.90;99.90;;;;;;171983;28;1334;-75
2021/06/06 00:33:49;;;;;;;9.57;6.67;;;16.80;99.90;;;;;;171969;28;1295;-75
2021/06/06 00:33:55;;;;;;;9.07;6.54;;;16.80;99.90;;;;;;172019;28;1147;-75
2021/06/06 00:34:02;;;;;;;9.10;6.65;;;16.80;99.90;;;;;;171947;28;1336;-75
2021/06/06 00:34:08;;;;;;;10.40;6.67;;;16.80;99.90;;;;;;171904;28;1372;-75
2021/06/06 00:34:14;;;;;;;10.33;6.63;;;16.80;99.90;;;;;;172656;28;1256;-75
2021/06/06 00:34:20;;;;;;;11.68;6.97;;;16.80;99.90;;;;;;172041;28;1402;-75
2021/06/06 00:34:27;;;;;;;12.67;6.93;;;16.80;99.90;;;;;;172000;28;1319;-75
2021/06/06 00:34:33;;;;;;;11.67;6.80;;;16.80;99.90;;;;;;171236;28;1359;-75
2021/06/06 00:34:42;;;;;;;10.85;6.82;;;16.80;99.90;;;;;;171965;28;1379;-75
2021/06/06 00:34:47;;;;;;;10.33;6.80;;;16.80;99.90;;;;;;172683;28;1382;-75
2021/06/06 00:34:53;;;;;;;9.05;6.63;;;16.80;99.90;;;;;;172760;28;962;-75
2021/06/06 00:34:59;;;;;;;9.10;6.78;;;16.80;99.90;;;;;;172063;28;836;-74
2021/06/06 00:35:08;;;;;;;8.80;6.80;;;16.80;99.90;;;;;;171997;28;1601;-75
2021/06/06 00:35:15;;;;;;;8.60;6.80;;;16.80;99.90;;;;;;172690;28;1222;-75
2021/06/06 00:35:23;;;;;;;9.27;6.67;;;16.80;99.90;;;;;;171285;28;1444;-74
2021/06/06 00:35:29;;;;;;;9.30;6.70;;;16.80;99.90;;;;;;171278;28;1397;-74
2021/06/06 00:35:35;;;;;;;8.70;6.60;;;16.80;99.90;;;;;;172098;28;911;-75
2021/06/06 00:35:41;;;;;;;9.15;6.45;;;16.80;99.90;;;;;;171992;28;1306;-75
2021/06/06 00:35:47;;;;;;;9.18;6.38;;;16.80;99.90;;;;;;172629;28;1440;-75
2021/06/06 00:35:52;;;;;;;8.63;6.40;;;16.80;99.90;;;;;;172281;28;1260;-75
2021/06/06 00:35:58;;;;;;;7.80;6.30;;;16.80;99.90;;;;;;172038;28;1481;-74
2021/06/06 00:36:07;;;;;;;8.00;6.50;;;16.80;99.90;;;;;;171963;28;1332;-74
2021/06/06 00:36:13;;;;;;;8.90;6.97;;;16.80;99.90;;;;;;172031;28;1029;-74
2021/06/06 00:36:21;;;;;;;8.98;7.00;;;16.80;99.90;;;;;;173377;28;1247;-74
2021/06/06 00:36:27;;;;;;;8.94;7.08;;;16.80;99.90;;;;;;173475;28;853;-74
2021/06/06 00:36:33;;;;;;;8.82;7.10;;;16.80;99.90;;;;;;172690;28;1467;-74
2021/06/06 00:36:40;;;;;;;7.90;6.90;;;16.80;99.90;;;;;;172083;28;855;-74
2021/06/06 00:36:45;;;;;;;7.63;6.83;;;16.80;99.90;;;;;;170701;28;1283;-75
2021/06/06 00:36:52;;;;;;;7.75;6.95;;;16.80;99.90;;;;;;171980;28;1366;-75
2021/06/06 00:36:58;;;;;;;7.87;7.03;;;16.80;99.90;;;;;;173270;28;1362;-74
2021/06/06 00:37:04;;;;;;;8.00;7.20;;;16.80;99.90;;;;;;172778;28;903;-75
2021/06/06 00:37:10;;;;;;;8.02;7.22;;;16.80;99.90;;;;;;171360;28;1311;-75
2021/06/06 00:37:16;;;;;;;8.00;7.20;;;16.80;99.90;;;;;;171334;28;1330;-75
2021/06/06 00:37:21;;;;;;;7.97;7.18;;;16.80;99.90;;;;;;172672;28;1217;-76
2021/06/06 00:37:27;;;;;;;8.02;7.22;;;16.80;99.90;;;;;;172648;28;1377;-74
2021/06/06 00:37:33;;;;;;;7.90;7.10;;;16.80;99.90;;;;;;172730;28;788;-74
2021/06/06 00:37:39;;;;;;;8.57;7.10;;;16.80;99.90;;;;;;171332;28;1278;-74
2021/06/06 00:37:45;;;;;;;9.23;7.18;;;16.80;99.90;;;;;;172033;28;890;-76
2021/06/06 00:37:51;;;;;;;10.30;7.23;;;16.80;99.90;;;;;;171298;28;1435;-74
2021/06/06 00:37:57;;;;;;;9.98;7.04;;;16.80;99.90;;;;;;173342;28;1348;-75
2021/06/06 00:38:03;;;;;;;9.50;7.00;;;16.80;99.90;;;;;;172771;28;1230;-74
2021/06/06 00:38:09;;;;;;;8.60;7.00;;;16.80;99.90;;;;;;172618;28;1219;-75
2021/06/06 00:38:15;;;;;;;8.32;7.03;;;16.80;99.90;;;;;;172760;28;918;-75
2021/06/06 00:38:21;;;;;;;7.80;7.00;;;16.80;99.90;;;;;;171298;28;1411;-75
2021/06/06 00:38:27;;;;;;;8.20;7.03;;;16.80;99.90;;;;;;173321;28;1172;-76
2021/06/06 00:38:33;;;;;;;8.57;6.93;;;16.80;99.90;;;;;;172654;28;1350;-75
2021/06/06 00:38:39;;;;;;;8.98;6.88;;;16.80;99.90;;;;;;172711;28;1223;-74
2021/06/06 00:38:45;;;;;;;9.30;6.80;;;16.80;99.90;;;;;;172764;28;906;-75
2021/06/06 00:38:51;;;;;;;9.47;6.80;;;16.80;99.90;;;;;;172695;28;1398;-74
2021/06/06 00:38:57;;;;;;;9.57;6.88;;;16.80;99.90;;;;;;172234;28;1372;-75
2021/06/06 00:39:04;;;;;;;9.35;7.13;;;16.80;99.90;;;;;;173370;28;871;-75
2021/06/06 00:39:11;;;;;;;8.87;7.13;;;16.80;99.90;;;;;;172721;28;935;-75